Current Weather Conditions: station NFBF1

sailwx.info

Wind from 330 at 16 knots gusting 19

Air temperature 19.1° C

Last reported at 2015-Jan-27 09:54 UTC.
Time now 2015-Jan-27 12:31 UTC

Location: N 25°05' W 081°05'.
View on Google Maps.

See reports from other nearby stations

  
Tides and Currents Weather Stations Pressure Air Temp Water Temp Dewpoint Dewpoint Depression Visibility Wind Speed Wind Dir Waves Ship Positions
date/time (UTC)wind fromknots sea level pressurealtimeterstation pressurevisibilityair tempwater tempwave heightnotes
2015-Jan-27 09:54 330 16 gusting 19 19.1
2015-Jan-27 09:48 330 17 gusting 20 19.1
2015-Jan-27 09:42 330 17 gusting 20 19.1
2015-Jan-27 09:36 330 16 gusting 19 19.1
2015-Jan-27 09:30 330 17 gusting 20 19.1
2015-Jan-27 09:24 330 18 gusting 22 19.0
2015-Jan-27 09:18 330 18 gusting 20 19.0
2015-Jan-27 09:12 330 17 gusting 20 18.9
2015-Jan-27 09:06 340 17 gusting 20 18.9
2015-Jan-27 09:00 340 18 gusting 22 18.9
2015-Jan-27 08:54 330 18 gusting 20 19.0
2015-Jan-27 08:48 330 16 gusting 20 19.1
2015-Jan-27 07:54 330 18 gusting 25 19.1
2015-Jan-27 07:48 330 19 gusting 20 18.9
2015-Jan-27 06:54 340 18 gusting 20 19.1
2015-Jan-27 06:48 330 18 gusting 22 19.2
2015-Jan-27 06:42 330 18 gusting 22 19.2
2015-Jan-27 06:36 330 18 gusting 20 19.2
2015-Jan-27 06:30 340 19 gusting 24 19.1
2015-Jan-27 06:24 330 18 gusting 23 19.2
2015-Jan-27 06:18 330 19 gusting 22 19.2
2015-Jan-27 06:12 330 18 gusting 20 19.2
2015-Jan-27 06:06 330 18 gusting 24 19.2
2015-Jan-27 06:00 340 18 gusting 22 19.2
2015-Jan-27 04:54 330 19 gusting 23 19.7
2015-Jan-27 04:48 310 17 gusting 22 19.9
2015-Jan-27 02:54 310 19 gusting 22 20.3
2015-Jan-27 02:48 310 20 gusting 23 20.3
2015-Jan-27 02:42 310 18 gusting 24 20.3
2015-Jan-27 02:36 310 18 gusting 20 20.2
2015-Jan-27 02:30 320 18 gusting 22 20.2
2015-Jan-27 02:24 320 19 gusting 23 20.2
2015-Jan-27 02:18 320 19 gusting 23 20.2
2015-Jan-27 02:12 310 19 gusting 24 20.2
2015-Jan-27 02:06 320 18 gusting 20 20.2
2015-Jan-27 02:00 320 17 gusting 20 20.2
2015-Jan-27 01:54 320 18 gusting 23 20.3
2015-Jan-27 01:48 320 19 gusting 22 20.3
2015-Jan-27 00:54 320 19 gusting 25 20.3
2015-Jan-27 00:48 320 20 gusting 25 20.3
2015-Jan-26 23:30 320 22 gusting 26 20.4
2015-Jan-26 23:24 320 20 gusting 26 20.5
2015-Jan-26 23:18 320 20 gusting 25 20.6
2015-Jan-26 23:12 320 22 gusting 27 20.6
2015-Jan-26 23:06 320 20 gusting 25 20.7
2015-Jan-26 23:00 330 20 gusting 25 20.6
2015-Jan-26 22:54 320 22 gusting 27 20.7
2015-Jan-26 22:48 320 22 gusting 25 20.9
2015-Jan-26 22:42 320 23 gusting 27 20.9
2015-Jan-26 22:36 320 20 gusting 26 20.9
2015-Jan-26 22:30 310 22 gusting 26 21.0
2015-Jan-26 22:24 320 22 gusting 25 21.0
2015-Jan-26 22:18 310 20 gusting 26 21.0
2015-Jan-26 22:12 320 20 gusting 24 21.0
2015-Jan-26 22:06 310 22 gusting 26 21.0
2015-Jan-26 22:00 320 22 gusting 25 21.1
2015-Jan-26 21:54 310 22 gusting 26 21.1
2015-Jan-26 21:48 320 20 gusting 25 21.1
2015-Jan-26 20:54 330 19 gusting 23 21.0
2015-Jan-26 20:48 330 19 gusting 23 21.0
2015-Jan-26 19:54 310 18 gusting 20 21.2
2015-Jan-26 19:48 310 20 gusting 24 21.1
2015-Jan-26 18:54 320 15 gusting 18 20.7
2015-Jan-26 18:48 320 15 gusting 19 20.6
2015-Jan-26 18:42 320 17 gusting 20 20.6
2015-Jan-26 18:36 310 18 gusting 20 20.7
2015-Jan-26 18:30 310 19 gusting 22 20.6
2015-Jan-26 18:24 310 17 gusting 20 20.8
2015-Jan-26 18:18 300 16 gusting 19 20.8
2015-Jan-26 18:12 300 17 gusting 19 20.6
2015-Jan-26 18:06 300 17 gusting 20 20.6
2015-Jan-26 18:00 310 18 gusting 20 20.6
2015-Jan-26 17:54 310 18 gusting 20 20.5
2015-Jan-26 17:48 310 19 gusting 23 20.4
2015-Jan-26 16:54 330 15 gusting 18 20.1
2015-Jan-26 16:48 320 16 gusting 19 20.0
2015-Jan-26 15:54 270 17 gusting 19 21.8
2015-Jan-26 15:48 270 18 gusting 22 21.8
2015-Jan-26 15:42 270 18 gusting 22 21.8
2015-Jan-26 15:36 260 17 gusting 20 21.7
2015-Jan-26 15:30 260 17 gusting 20 21.7
2015-Jan-26 15:24 260 18 gusting 20 21.8
2015-Jan-26 15:18 270 17 gusting 20 21.8
2015-Jan-26 15:12 270 18 gusting 20 21.8
2015-Jan-26 15:06 260 17 gusting 22 21.8
2015-Jan-26 15:00 260 18 gusting 20 21.7
2015-Jan-26 14:54 260 18 gusting 24 21.8
2015-Jan-26 14:48 260 19 gusting 24 21.8
2015-Jan-26 14:42 260 18 gusting 20 21.7
2015-Jan-26 14:36 260 17 gusting 22 21.7
2015-Jan-26 14:30 270 19 gusting 20 21.8
2015-Jan-26 14:24 260 18 gusting 20 21.8
2015-Jan-26 14:18 260 18 gusting 22 21.7
2015-Jan-26 14:12 260 20 gusting 27 21.8
2015-Jan-26 14:06 260 20 gusting 24 21.8
2015-Jan-26 14:00 260 19 gusting 23 21.7
2015-Jan-26 13:54 260 19 gusting 22 21.8
2015-Jan-26 13:48 270 19 gusting 22 21.8
2015-Jan-26 13:42 270 16 gusting 20 21.6
2015-Jan-26 13:36 270 15 gusting 18 21.6
2015-Jan-26 13:30 270 17 gusting 19 21.5
2015-Jan-26 13:24 270 18 gusting 20 21.5
2015-Jan-26 13:18 270 18 gusting 20 21.7
2015-Jan-26 13:12 270 18 gusting 23 21.6
2015-Jan-26 13:06 260 16 gusting 20 21.4
2015-Jan-26 13:00 260 16 gusting 18 21.3
2015-Jan-26 12:54 260 16 gusting 19 21.3
2015-Jan-26 12:48 270 15 gusting 18 21.3
2015-Jan-26 12:42 270 16 gusting 18 21.3
2015-Jan-26 12:36 270 18 gusting 20 21.3
2015-Jan-26 12:30 270 15 gusting 19 21.1
2015-Jan-26 12:24 260 15 gusting 17 21.1
2015-Jan-26 12:18 270 16 gusting 19 21.1
2015-Jan-26 12:12 270 15 gusting 18 21.1
2015-Jan-26 12:06 270 16 gusting 19 21.1
2015-Jan-26 12:00 270 16 gusting 19 21.1
2015-Jan-26 11:54 280 16 gusting 20 21.1
2015-Jan-26 11:48 270 16 gusting 19 21.0
2015-Jan-26 10:54 270 17 gusting 20 20.9
2015-Jan-26 10:48 270 18 gusting 20 20.9
2015-Jan-26 09:54 270 14 gusting 16 20.4
2015-Jan-26 09:48 270 13 gusting 15 20.4
2015-Jan-26 09:42 270 15 gusting 17 20.4
2015-Jan-26 09:36 270 15 gusting 19 20.4
2015-Jan-26 09:30 260 14 gusting 17 20.3
2015-Jan-26 09:24 270 12 gusting 14 20.1
2015-Jan-26 09:18 260 12 gusting 14 19.9
2015-Jan-26 09:12 270 11 gusting 13 19.8
2015-Jan-26 09:06 270 12 gusting 16 19.8
2015-Jan-26 09:00 270 11 gusting 14 19.7
2015-Jan-26 08:54 270 11 gusting 13 19.6
2015-Jan-26 08:48 270 12 gusting 13 19.6
2015-Jan-26 07:54 250 11 gusting 14 19.4
2015-Jan-26 07:48 250 11 gusting 13 19.4
2015-Jan-26 06:54 240 9 gusting 11 19.1
2015-Jan-26 06:48 240 9 gusting 12 19.0
2015-Jan-26 06:42 250 9 gusting 11 19.0
2015-Jan-26 06:36 250 9 gusting 11 19.0
2015-Jan-26 06:30 250 9 gusting 12 18.8
2015-Jan-26 06:24 250 9 gusting 11 18.9
2015-Jan-26 06:18 250 7 gusting 8 18.9
2015-Jan-26 06:12 250 9 gusting 11 18.9
2015-Jan-26 06:06 250 9 gusting 11 18.8
2015-Jan-26 06:00 250 8 gusting 10 18.8
2015-Jan-26 05:54 260 8 gusting 10 18.8
2015-Jan-26 05:48 260 6 gusting 8 18.8
2015-Jan-26 04:54 270 7 gusting 9 18.6
2015-Jan-26 04:48 260 7 gusting 9 18.6
2015-Jan-26 03:54 290 7 gusting 9 18.7
2015-Jan-26 03:48 300 8 gusting 10 18.7
2015-Jan-26 03:42 310 10 gusting 12 18.7
2015-Jan-26 03:36 310 10 gusting 12 18.8
2015-Jan-26 03:30 320 11 gusting 12 18.8
2015-Jan-26 03:24 320 11 gusting 14 18.8
2015-Jan-26 03:18 320 12 gusting 15 18.8
2015-Jan-26 03:12 320 12 gusting 14 18.8
2015-Jan-26 03:06 310 11 gusting 12 18.8
2015-Jan-26 03:00 320 10 gusting 12 18.7
2015-Jan-26 02:54 320 10 gusting 12 18.6
2015-Jan-26 02:48 300 9 gusting 11 18.6
2015-Jan-26 01:54 320 11 gusting 14 18.7
2015-Jan-26 01:48 320 11 gusting 13 18.7
2015-Jan-26 01:30 320 9 gusting 11 18.6
2015-Jan-26 01:24 310 9 gusting 11 18.6
2015-Jan-26 01:18 330 9 gusting 12 18.6
2015-Jan-26 01:12 320 10 gusting 12 18.6
2015-Jan-26 01:06 320 11 gusting 12 18.6
2015-Jan-26 01:00 310 9 gusting 12 18.7
2015-Jan-26 00:54 320 10 gusting 14 18.7
2015-Jan-26 00:48 330 11 gusting 14 18.7
2015-Jan-25 23:30 320 11 gusting 13 18.6
2015-Jan-25 23:24 320 10 gusting 12 18.5
2015-Jan-25 23:18 320 9 gusting 11 18.4
2015-Jan-25 23:12 330 9 gusting 11 18.3
2015-Jan-25 23:06 330 8 gusting 10 18.4
2015-Jan-25 23:00 340 9 gusting 11 18.3
2015-Jan-25 22:54 330 7 gusting 10 18.2
2015-Jan-25 22:48 340 7 gusting 9 18.2
2015-Jan-25 21:54 360 7 gusting 9 18.2
2015-Jan-25 21:48 010 7 gusting 9 18.2
2015-Jan-25 20:54 360 11 gusting 13 18.0
2015-Jan-25 20:48 350 11 gusting 13 17.9
2015-Jan-25 20:42 350 10 gusting 12 18.0
2015-Jan-25 20:36 350 11 gusting 13 17.9
2015-Jan-25 20:30 340 10 gusting 12 17.9
2015-Jan-25 20:24 330 11 gusting 13 17.8
2015-Jan-25 20:18 330 11 gusting 14 17.9
2015-Jan-25 20:12 330 12 gusting 13 17.9
2015-Jan-25 20:06 330 11 gusting 13 17.9
2015-Jan-25 20:00 330 11 gusting 13 17.9
2015-Jan-25 19:54 330 11 gusting 12 17.9
2015-Jan-25 19:48 350 10 gusting 12 17.8
2015-Jan-25 19:42 350 11 gusting 13 17.8
2015-Jan-25 19:36 340 12 gusting 13 17.9
2015-Jan-25 19:30 350 11 gusting 13 17.9
2015-Jan-25 19:24 350 11 gusting 13 17.9
2015-Jan-25 19:18 350 10 gusting 12 18.0
2015-Jan-25 19:12 350 10 gusting 12 18.0
2015-Jan-25 19:06 350 10 gusting 11 17.9
2015-Jan-25 19:00 350 10 gusting 11 17.9
2015-Jan-25 18:54 350 10 gusting 11 17.9
2015-Jan-25 18:48 340 10 gusting 11 17.9
2015-Jan-25 17:54 340 12 gusting 14 17.9
2015-Jan-25 17:48 350 12 gusting 15 17.9
2015-Jan-25 17:42 350 11 gusting 14 17.8
2015-Jan-25 17:36 350 12 gusting 14 17.9
2015-Jan-25 17:30 360 10 gusting 13 17.8
2015-Jan-25 17:24 010 10 gusting 12 17.8
2015-Jan-25 17:18 360 10 gusting 13 17.7
2015-Jan-25 17:12 350 10 gusting 12 17.8
2015-Jan-25 17:06 010 8 gusting 10 17.5
2015-Jan-25 17:00 020 6 gusting 9 17.1
2015-Jan-25 16:54 030 7 gusting 10 16.9
2015-Jan-25 16:48 020 7 gusting 10 16.8
2015-Jan-25 15:54 040 10 gusting 13 16.0
2015-Jan-25 15:48 040 9 gusting 12 16.0
2015-Jan-25 15:42 030 10 gusting 14 15.8
2015-Jan-25 15:36 030 11 gusting 13 15.9
2015-Jan-25 15:30 040 13 gusting 15 15.5
2015-Jan-25 15:24 040 12 gusting 15 15.6
2015-Jan-25 15:18 040 12 gusting 13 15.5
2015-Jan-25 15:12 040 12 gusting 14 15.5
2015-Jan-25 15:06 040 12 gusting 15 15.4
2015-Jan-25 15:00 040 13 gusting 14 15.3
2015-Jan-25 14:54 030 13 gusting 15 15.2
2015-Jan-25 14:48 040 12 gusting 14 15.0
2015-Jan-25 13:54 030 14 gusting 17 14.0
2015-Jan-25 13:48 030 15 gusting 17 13.8
2015-Jan-25 12:54 030 15 gusting 17 13.5
2015-Jan-25 12:48 040 15 gusting 18 13.5
2015-Jan-25 12:42 040 15 gusting 18 13.6
2015-Jan-25 12:36 050 16 gusting 20 13.6
2015-Jan-25 12:30 040 15 gusting 18 13.8
2015-Jan-25 12:24 040 15 gusting 17 13.9
2015-Jan-25 12:18 040 15 gusting 17 13.6
2015-Jan-25 12:12 040 15 gusting 16 13.7
2015-Jan-25 12:06 040 14 gusting 16 13.7
2015-Jan-25 12:00 040 15 gusting 17 13.8